KBBD - Brady/Curtis Fld, TX, US

Issued at 2323 UTC 18 Oct 2019
Updated at 2337 UTC 18 Oct 2019
Potential Impact None Slight Moderate High
Time2315Z 19/00Z 19/01Z 19/02Z 19/03Z 19/04Z 19/05Z 19/06Z 19/07Z 19/08Z 19/09Z 19/10Z 19/11Z 19/12Z>>
Type OBS PRVL PRVL PRVL PRVL PRVL PRVL PRVL PRVL PRVL PRVL PRVL PRVL PRVL
VIS 10 >6 >6 >6 >6 >6 >6 >6 >6 >6 >6 >6 >6 >6
CIG -- -- -- -- -- -- -- -- -- -- -- -- -- --
Cover CLR FEW FEW FEW SCT SCT SCT SCT SCT SCT SCT SCT SCT SCT
FltCat VFR VFR VFR VFR VFR VFR VFR VFR VFR VFR VFR VFR VFR VFR
WX -- -- -- -- -- -- -- -- -- -- -- -- -- --
WDir 150 170 170 170 200 200 200 200 200 200 200 200 200 200
WSpd 9 11 11 11 8 8 8 8 8 8 8 8 8 8
WGst 17 -- -- -- -- -- -- -- -- -- -- -- -- --
Raw TAF
KBBD 182323Z 1900/1924 17011KT P6SM FEW150
  FM190300 20008KT P6SM SCT080
  FM191600 32011KT P6SM SKC


Raw METAR
KBBD 182315Z AUTO 15009G17KT 10SM CLR 28/09 A2969 RMK AO2
KBBD 182255Z AUTO 15012KT 10SM CLR 29/10 A2969 RMK AO2
KBBD 182235Z AUTO 15011G18KT 10SM CLR 29/10 A2969 RMK AO2
KBBD 182215Z AUTO 16011G17KT 10SM CLR 29/10 A2970 RMK AO2
KBBD 182155Z AUTO 15009KT 10SM CLR 29/10 A2970 RMK AO2
KBBD 182135Z AUTO 16010G16KT 10SM CLR 28/10 A2971 RMK AO2
KBBD 182115Z AUTO 14011G16KT 10SM CLR 29/10 A2971 RMK AO2
KBBD 182055Z AUTO 15014KT 10SM CLR 29/10 A2971 RMK AO2
KBBD 182035Z AUTO 19009G17KT 110V220 10SM CLR 28/10 A2971 RMK AO2

METAR Board
Radar Display
Forecast Discussion
For situational awareness. Not to be used for flight planning purposes.